Time;durP1;ratioP1;P1;durP2;ratioP2;P2;SDS_P1;SDS_P2;PMS_P1;PMS_P2;Temp;Humidity;BMP_temperature;BMP_pressure;BME280_temperature;BME280_humidity;BME280_pressure;Samples;Min_cycle;Max_cycle;Signal;HPM_P1;HPM_P2
2022/08/20 00:01:08;;;;;;;11.77;10.48;;;;;;;20.10;100.00;100480.31;4954670;28;20050;-79
2022/08/20 00:03:38;;;;;;;11.60;10.48;;;;;;;20.08;100.00;100485.72;4962666;28;20396;-78
2022/08/20 00:06:17;;;;;;;11.25;10.15;;;;;;;20.09;100.00;100484.78;4974284;28;20046;-78
2022/08/20 00:08:45;;;;;;;10.95;9.85;;;;;;;20.08;100.00;100477.69;4968937;28;20038;-79
2022/08/20 00:11:15;;;;;;;11.20;10.10;;;;;;;20.09;100.00;100484.78;4971315;28;20719;-79
2022/08/20 00:13:45;;;;;;;11.65;10.55;;;;;;;20.09;100.00;100487.44;4954652;28;20045;-79
2022/08/20 00:16:13;;;;;;;12.30;11.10;;;;;;;20.12;100.00;100489.09;4984465;28;20595;-78
2022/08/20 00:18:41;;;;;;;11.80;10.57;;;;;;;20.11;100.00;100482.88;4973744;28;20050;-79
2022/08/20 00:21:11;;;;;;;10.77;9.60;;;;;;;20.11;100.00;100479.34;4959202;28;20075;-79
2022/08/20 00:23:48;;;;;;;13.07;11.27;;;;;;;20.09;100.00;100476.72;4960930;28;20045;-79
2022/08/20 00:26:16;;;;;;;13.25;11.77;;;;;;;20.12;100.00;100475.69;4964665;28;20046;-78
2022/08/20 00:28:43;;;;;;;13.43;12.02;;;;;;;20.03;100.00;100477.13;4974388;28;20042;-78
2022/08/20 00:31:11;;;;;;;12.30;10.90;;;;;;;19.96;100.00;100483.84;4964753;28;20046;-78
2022/08/20 00:33:40;;;;;;;14.57;12.98;;;;;;;19.93;100.00;100486.72;4978989;28;20077;-79
2022/08/20 00:36:09;;;;;;;13.27;11.93;;;;;;;19.87;100.00;100487.94;4958601;28;20034;-79
2022/08/20 00:38:43;;;;;;;16.08;13.75;;;;;;;19.86;100.00;100490.72;4982617;28;20038;-79
2022/08/20 00:41:17;;;;;;;14.93;13.30;;;;;;;19.80;100.00;100489.28;4976138;28;20502;-78
2022/08/20 00:43:50;;;;;;;14.23;12.82;;;;;;;19.81;100.00;100490.13;4962237;28;20042;-78
2022/08/20 00:46:21;;;;;;;13.98;12.55;;;;;;;19.78;100.00;100490.34;4973133;28;20407;-78
2022/08/20 00:49:01;;;;;;;13.10;11.60;;;;;;;19.76;100.00;100494.91;4963334;28;20049;-78
2022/08/20 00:51:40;;;;;;;14.48;12.98;;;;;;;19.74;100.00;100494.16;4971801;28;20030;-78
2022/08/20 00:54:20;;;;;;;16.63;14.85;;;;;;;19.72;100.00;100501.44;4975986;28;20419;-79
2022/08/20 00:56:58;;;;;;;14.25;12.68;;;;;;;19.68;100.00;100500.75;4971590;28;20053;-78
2022/08/20 00:59:28;;;;;;;15.25;13.45;;;;;;;19.67;100.00;100499.91;4980946;28;20061;-78
2022/08/20 01:01:56;;;;;;;18.35;16.30;;;;;;;19.70;100.00;100488.13;4976325;28;20037;-80
2022/08/20 01:04:32;;;;;;;15.80;14.13;;;;;;;19.69;100.00;100481.03;4964805;28;20042;-79
2022/08/20 01:07:04;;;;;;;16.33;13.48;;;;;;;19.67;100.00;100486.50;4969492;28;20122;-78
2022/08/20 01:09:35;;;;;;;18.90;13.98;;;;;;;19.62;100.00;100477.88;4970033;28;20484;-79
2022/08/20 01:12:22;;;;;;;15.73;14.20;;;;;;;19.62;100.00;100472.50;4960533;28;20042;-78
2022/08/20 01:14:49;;;;;;;16.65;14.15;;;;;;;19.62;100.00;100480.53;4992408;28;20065;-79
2022/08/20 01:17:20;;;;;;;15.30;13.70;;;;;;;19.60;100.00;100471.75;4956580;28;20042;-78
2022/08/20 01:19:56;;;;;;;15.65;13.60;;;;;;;19.60;100.00;100473.56;4961625;28;20526;-78
2022/08/20 01:25:48;;;;;;;15.80;13.00;;;;;;;19.60;100.00;100487.81;4967414;28;20038;-78
2022/08/20 01:28:17;;;;;;;15.15;12.95;;;;;;;19.61;100.00;100488.69;4943497;28;20050;-78
2022/08/20 01:30:44;;;;;;;14.63;12.57;;;;;;;19.60;100.00;100490.50;4957996;28;20046;-79
2022/08/20 01:33:11;;;;;;;14.43;12.70;;;;;;;19.60;100.00;100487.81;4957880;28;20046;-78
2022/08/20 01:35:39;;;;;;;17.45;14.60;;;;;;;19.61;100.00;100488.69;4956878;28;20454;-78
2022/08/20 01:38:07;;;;;;;16.52;14.45;;;;;;;19.61;100.00;100489.53;4962834;28;20399;-79
2022/08/20 01:41:14;;;;;;;15.65;14.05;;;;;;;19.60;100.00;100493.19;4965056;28;20042;-78
2022/08/20 01:43:41;;;;;;;15.15;13.05;;;;;;;19.59;100.00;100488.78;4974911;28;20046;-79
2022/08/20 01:46:09;;;;;;;17.80;14.52;;;;;;;19.60;100.00;100489.66;4971698;28;20068;-78
2022/08/20 01:48:37;;;;;;;21.95;17.83;;;;;;;19.62;100.00;100490.41;4979270;28;20038;-79
2022/08/20 01:51:17;;;;;;;19.95;17.67;;;;;;;19.59;100.00;100488.78;4971587;28;20042;-79
2022/08/20 01:53:52;;;;;;;20.10;16.58;;;;;;;19.60;100.00;100492.31;4973263;28;20043;-80
2022/08/20 01:56:23;;;;;;;18.73;14.90;;;;;;;19.59;100.00;100487.88;4971524;28;20050;-79
2022/08/20 01:58:52;;;;;;;20.17;17.65;;;;;;;19.54;100.00;100492.66;4958950;28;20046;-79
2022/08/20 02:01:28;;;;;;;21.60;17.23;;;;;;;19.57;100.00;100496.03;4967751;28;20043;-79
2022/08/20 02:03:55;;;;;;;19.90;16.25;;;;;;;19.53;100.00;100494.47;4960112;28;20085;-80
2022/08/20 02:06:24;;;;;;;17.30;15.55;;;;;;;19.52;100.00;100494.56;4934146;28;20053;-79
2022/08/20 02:08:56;;;;;;;18.25;16.02;;;;;;;19.49;100.00;100498.28;4961672;28;20050;-79
2022/08/20 02:11:23;;;;;;;18.92;16.55;;;;;;;19.47;100.00;100502.88;4957311;28;20710;-79
2022/08/20 02:13:51;;;;;;;22.13;18.65;;;;;;;19.50;100.00;100507.16;4961637;28;20065;-79
2022/08/20 02:16:23;;;;;;;19.95;16.00;;;;;;;19.48;100.00;100507.28;4956422;28;20046;-81
2022/08/20 02:18:53;;;;;;;17.98;15.98;;;;;;;19.48;100.00;100514.44;4960623;28;20046;-79
2022/08/20 02:21:21;;;;;;;21.30;17.20;;;;;;;19.46;100.00;100503.81;4964492;28;20615;-79
2022/08/20 02:23:48;;;;;;;19.85;16.42;;;;;;;19.46;100.00;100513.69;4957498;28;20058;-78
2022/08/20 02:26:17;;;;;;;20.05;16.95;;;;;;;19.41;100.00;100509.44;4962146;28;20043;-80
2022/08/20 02:28:47;;;;;;;19.25;16.33;;;;;;;19.40;100.00;100504.19;4976732;28;20053;-78
2022/08/20 02:31:16;;;;;;;20.70;17.27;;;;;;;19.41;100.00;100517.47;5060421;23;20055;-80
2022/08/20 02:33:43;;;;;;;23.88;19.48;;;;;;;19.39;100.00;100519.41;4997805;28;20060;-80
2022/08/20 02:36:29;;;;;;;20.27;17.48;;;;;;;19.35;100.00;100517.00;4997392;28;20504;-80
2022/08/20 02:38:56;;;;;;;20.65;16.05;;;;;;;19.33;100.00;100516.22;4990418;28;20053;-84
2022/08/20 02:41:23;;;;;;;17.27;15.23;;;;;;;19.32;100.00;100519.84;4995678;28;20049;-82
2022/08/20 02:43:50;;;;;;;21.50;17.88;;;;;;;19.31;100.00;100520.81;5003812;28;20056;-81
2022/08/20 02:46:20;;;;;;;19.98;16.98;;;;;;;19.32;100.00;100522.53;5009721;28;20418;-83
2022/08/20 02:48:46;;;;;;;19.90;17.48;;;;;;;19.29;100.00;100528.94;5007218;28;20483;-83
2022/08/20 02:51:16;;;;;;;18.23;16.30;;;;;;;19.29;100.00;100522.72;4993631;28;20042;-82
2022/08/20 02:53:56;;;;;;;21.88;18.80;;;;;;;19.30;100.00;100529.78;4993217;28;20049;-81
2022/08/20 02:56:22;;;;;;;18.85;16.45;;;;;;;19.28;100.00;100529.03;4993847;28;20518;-83
2022/08/20 02:58:49;;;;;;;20.10;17.02;;;;;;;19.29;100.00;100530.75;5015401;28;20053;-82
2022/08/20 03:01:16;;;;;;;19.52;16.63;;;;;;;19.29;100.00;100518.22;4995700;28;20471;-81
2022/08/20 03:03:43;;;;;;;17.48;15.45;;;;;;;19.28;100.00;100519.19;5007343;28;20033;-81
2022/08/20 03:06:10;;;;;;;24.35;18.88;;;;;;;19.29;100.00;100523.59;4994154;28;20049;-81
2022/08/20 03:08:37;;;;;;;20.23;16.70;;;;;;;19.29;100.00;100518.22;4997807;28;20052;-83
2022/08/20 03:11:05;;;;;;;23.75;18.95;;;;;;;19.29;100.00;100520.03;5010719;28;20058;-81
2022/08/20 03:13:32;;;;;;;20.08;17.25;;;;;;;19.29;100.00;100520.91;4995386;28;20046;-81
2022/08/20 03:16:01;;;;;;;23.25;19.08;;;;;;;19.31;100.00;100518.13;5015585;28;20109;-81
2022/08/20 03:18:37;;;;;;;21.13;16.88;;;;;;;19.31;100.00;100521.66;5003801;28;20052;-83
2022/08/20 03:21:05;;;;;;;20.77;17.10;;;;;;;19.32;100.00;100519.84;5010500;28;20049;-82
2022/08/20 03:23:36;;;;;;;21.60;17.52;;;;;;;19.31;100.00;100520.81;4988818;28;20075;-81
2022/08/20 03:26:08;;;;;;;22.95;19.15;;;;;;;19.28;100.00;100526.34;5001208;28;20048;-82
2022/08/20 03:28:35;;;;;;;27.38;21.15;;;;;;;19.27;100.00;100517.47;4986771;28;20060;-81
2022/08/20 03:31:02;;;;;;;26.95;21.10;;;;;;;19.30;100.00;100513.72;5010274;28;20092;-81
2022/08/20 03:33:30;;;;;;;27.92;21.35;;;;;;;19.28;100.00;100504.94;5000032;28;20029;-81
2022/08/20 03:35:57;;;;;;;23.17;19.52;;;;;;;19.20;100.00;100500.00;4994775;28;20490;-81
2022/08/20 03:38:24;;;;;;;27.15;22.25;;;;;;;19.19;100.00;100508.16;4996067;28;20748;-80
2022/08/20 03:41:00;;;;;;;24.55;19.33;;;;;;;19.16;100.00;100500.28;4999175;28;20423;-81
2022/08/20 03:43:27;;;;;;;23.48;18.67;;;;;;;19.14;100.00;100508.41;4983651;28;20041;-80
2022/08/20 03:45:53;;;;;;;27.95;20.92;;;;;;;19.16;100.00;100514.53;4997107;28;20395;-80
2022/08/20 03:48:20;;;;;;;31.50;23.10;;;;;;;19.17;100.00;100510.91;4978888;28;20181;-83
2022/08/20 03:50:49;;;;;;;24.38;19.63;;;;;;;19.15;100.00;100507.44;4980089;28;20469;-81
2022/08/20 03:53:16;;;;;;;28.77;20.50;;;;;;;19.15;100.00;100511.94;4980898;28;20061;-81
2022/08/20 03:55:46;;;;;;;27.23;21.77;;;;;;;19.13;100.00;100502.19;4996565;28;20055;-80
2022/08/20 03:58:21;;;;;;;28.88;20.13;;;;;;;19.13;100.00;100512.91;4998102;28;20034;-82
2022/08/20 04:01:00;;;;;;;23.30;18.20;;;;;;;19.12;100.00;100510.31;4983100;28;20536;-80
2022/08/20 04:03:27;;;;;;;32.67;23.95;;;;;;;19.13;100.00;100520.94;5011861;28;20041;-82
2022/08/20 04:05:54;;;;;;;26.85;20.10;;;;;;;19.13;100.00;100522.75;4996752;28;20063;-81
2022/08/20 04:08:28;;;;;;;29.77;22.08;;;;;;;19.17;100.00;100521.63;4995765;28;20045;-80
2022/08/20 04:10:59;;;;;;;34.08;23.05;;;;;;;19.17;100.00;100516.28;4994836;28;20050;-81
2022/08/20 04:13:26;;;;;;;25.95;20.05;;;;;;;19.18;100.00;100511.78;4998034;28;20044;-82
2022/08/20 04:15:55;;;;;;;30.45;23.25;;;;;;;19.22;100.00;100519.53;4998649;28;20053;-82
2022/08/20 04:18:24;;;;;;;28.33;21.92;;;;;;;19.20;100.00;100517.91;4998409;28;20060;-82
2022/08/20 04:20:52;;;;;;;25.40;20.63;;;;;;;19.16;100.00;100519.88;4995791;28;20044;-83
2022/08/20 04:23:20;;;;;;;28.65;21.52;;;;;;;19.12;100.00;100521.88;5014013;28;20033;-82
2022/08/20 04:25:47;;;;;;;26.95;20.98;;;;;;;19.09;100.00;100526.56;4998982;28;20390;-82
2022/08/20 04:28:23;;;;;;;23.90;18.75;;;;;;;19.06;100.00;100530.25;5012133;28;20033;-83
2022/08/20 04:30:51;;;;;;;22.48;19.00;;;;;;;19.06;100.00;100526.72;5011617;28;20053;-82
2022/08/20 04:33:19;;;;;;;29.40;22.85;;;;;;;19.09;100.00;100523.91;4998205;28;20041;-83
2022/08/20 04:36:01;;;;;;;25.55;20.65;;;;;;;19.08;100.00;100511.44;4998842;28;20708;-82
2022/08/20 04:38:30;;;;;;;28.10;22.05;;;;;;;19.11;100.00;100521.97;5009309;28;20393;-82
2022/08/20 04:41:20;;;;;;;27.70;21.13;;;;;;;19.09;100.00;100518.53;4996434;28;20472;-82
2022/08/20 04:43:52;;;;;;;28.40;20.38;;;;;;;19.12;100.00;100521.88;4998972;28;20480;-82
2022/08/20 04:46:19;;;;;;;28.75;22.15;;;;;;;19.18;100.00;100522.50;4979352;28;20037;-82
2022/08/20 04:48:46;;;;;;;26.40;20.85;;;;;;;19.14;100.00;100524.47;4980308;28;20056;-83
2022/08/20 04:51:16;;;;;;;32.65;24.05;;;;;;;19.19;100.00;100525.06;4982402;28;20054;-82
2022/08/20 04:53:45;;;;;;;27.95;20.05;;;;;;;19.12;100.00;100529.91;4997251;28;20042;-81
2022/08/20 04:56:33;;;;;;;22.55;17.67;;;;;;;19.03;100.00;100535.81;5015425;28;20037;-81
2022/08/20 04:59:00;;;;;;;24.13;18.45;;;;;;;19.01;100.00;100542.22;4997791;28;20049;-82
2022/08/20 05:01:28;;;;;;;27.08;21.23;;;;;;;19.02;100.00;100544.78;5011726;28;20042;-81
2022/08/20 05:03:56;;;;;;;24.50;19.98;;;;;;;19.04;100.00;100542.03;4995443;28;20076;-82
2022/08/20 05:06:28;;;;;;;25.00;19.40;;;;;;;19.05;100.00;100543.75;4997413;28;20128;-82
2022/08/20 05:08:57;;;;;;;24.63;19.98;;;;;;;19.06;100.00;100540.97;4998080;28;20041;-80
2022/08/20 05:11:24;;;;;;;27.17;21.02;;;;;;;19.09;100.00;100535.47;4994921;28;20061;-81
2022/08/20 05:14:04;;;;;;;27.38;20.00;;;;;;;19.06;100.00;100540.97;4999386;28;20490;-81
2022/08/20 05:16:31;;;;;;;28.17;22.33;;;;;;;19.10;100.00;100547.91;5010357;28;20458;-80
2022/08/20 05:18:58;;;;;;;27.77;23.30;;;;;;;19.12;100.00;100543.31;4995432;28;20041;-81
2022/08/20 05:21:25;;;;;;;26.77;21.48;;;;;;;19.21;100.00;100546.41;4992511;28;20045;-82
2022/08/20 05:23:51;;;;;;;26.17;20.45;;;;;;;19.15;100.00;100554.78;4979808;28;20041;-80
2022/08/20 05:26:18;;;;;;;30.17;22.63;;;;;;;19.22;100.00;100554.34;4986573;28;20038;-81
2022/08/20 05:28:47;;;;;;;20.98;17.55;;;;;;;19.22;100.00;100553.47;4992479;28;20041;-81
2022/08/20 05:31:22;;;;;;;27.90;21.67;;;;;;;19.15;100.00;100549.44;5004031;28;20535;-82
2022/08/20 05:34:02;;;;;;;29.30;22.33;;;;;;;19.23;100.00;100552.53;4997501;28;20046;-81
2022/08/20 05:36:29;;;;;;;26.73;21.55;;;;;;;19.27;100.00;100556.78;4978334;28;20041;-82
2022/08/20 05:38:56;;;;;;;24.83;19.15;;;;;;;19.26;100.00;100555.06;4993711;28;20045;-80
2022/08/20 05:41:22;;;;;;;27.10;19.52;;;;;;;19.26;100.00;100557.72;4981100;28;20178;-81
2022/08/20 05:44:01;;;;;;;27.92;22.52;;;;;;;19.29;100.00;100558.41;4993800;28;20052;-81
2022/08/20 05:46:30;;;;;;;26.17;20.25;;;;;;;19.32;100.00;100560.88;4995265;28;20045;-82
2022/08/20 05:48:58;;;;;;;25.52;19.70;;;;;;;19.29;100.00;100569.13;4996442;28;20037;-82
2022/08/20 05:51:26;;;;;;;25.13;20.60;;;;;;;19.32;100.00;100574.28;5000701;28;20049;-81
2022/08/20 05:53:53;;;;;;;23.63;18.95;;;;;;;19.33;100.00;100577.81;5004054;28;20113;-81
2022/08/20 05:56:24;;;;;;;27.77;21.13;;;;;;;19.37;100.00;100574.03;4995433;28;20091;-81
2022/08/20 05:58:52;;;;;;;27.55;20.80;;;;;;;19.41;100.00;100579.09;4995606;28;20132;-81
2022/08/20 06:01:19;;;;;;;23.02;18.58;;;;;;;19.45;100.00;100565.53;4994702;28;20562;-82
2022/08/20 06:06:31;;;;;;;24.50;19.27;;;;;;;19.62;100.00;100555.59;5014426;28;20045;-81
2022/08/20 06:09:14;;;;;;;23.58;19.63;;;;;;;19.63;100.00;100570.72;4986129;28;20041;-82
2022/08/20 06:11:41;;;;;;;24.48;19.17;;;;;;;19.65;100.00;100574.16;4993410;28;20045;-80
2022/08/20 06:14:08;;;;;;;21.55;17.92;;;;;;;19.63;100.00;100575.22;4992741;28;20034;-80
2022/08/20 06:16:35;;;;;;;21.60;17.27;;;;;;;19.62;100.00;100581.53;5007173;28;20045;-81
2022/08/20 06:19:03;;;;;;;18.95;16.17;;;;;;;19.64;100.00;100580.47;4997609;28;20140;-81
2022/08/20 06:21:30;;;;;;;29.45;22.73;;;;;;;19.69;100.00;100574.84;5012506;28;20041;-81
2022/08/20 06:23:57;;;;;;;24.23;19.98;;;;;;;19.72;100.00;100577.34;5028307;28;20041;-81
2022/08/20 06:26:27;;;;;;;23.58;19.77;;;;;;;19.72;100.00;100576.47;4995899;28;20056;-82
2022/08/20 06:28:57;;;;;;;23.83;18.85;;;;;;;19.62;100.00;100573.50;4997173;28;20045;-81
2022/08/20 06:31:24;;;;;;;26.38;20.10;;;;;;;19.62;100.00;100573.50;5002747;28;20046;-81
2022/08/20 06:33:50;;;;;;;26.80;21.00;;;;;;;19.67;100.00;100574.94;5007140;28;20034;-82
2022/08/20 06:36:17;;;;;;;21.23;16.92;;;;;;;19.59;100.00;100579.00;5022870;28;20096;-80
2022/08/20 06:38:45;;;;;;;23.85;19.38;;;;;;;19.58;100.00;100588.88;4983660;28;20064;-81
2022/08/20 06:41:12;;;;;;;21.67;18.42;;;;;;;19.60;100.00;100586.13;4995003;28;20053;-82
2022/08/20 06:43:39;;;;;;;20.15;16.98;;;;;;;19.63;100.00;100581.44;5008913;28;20045;-80
2022/08/20 06:46:07;;;;;;;22.48;19.05;;;;;;;19.68;100.00;100586.53;5009596;28;20125;-82
2022/08/20 06:48:34;;;;;;;26.30;21.33;;;;;;;19.80;100.00;100585.78;4997126;28;20091;-80
2022/08/20 06:51:00;;;;;;;27.48;21.33;;;;;;;19.83;100.00;100584.72;4983776;28;20052;-81
2022/08/20 06:53:27;;;;;;;22.55;18.33;;;;;;;19.84;100.00;100591.81;4993327;28;20049;-82
2022/08/20 06:55:57;;;;;;;24.67;19.30;;;;;;;19.99;100.00;100588.22;5014589;28;20115;-81
2022/08/20 06:58:24;;;;;;;22.05;17.73;;;;;;;20.05;100.00;100595.03;5009467;28;20092;-81
2022/08/20 07:01:08;;;;;;;22.65;18.50;;;;;;;20.18;100.00;100590.66;4997280;28;20053;-81
2022/08/20 07:03:37;;;;;;;23.73;19.15;;;;;;;20.29;100.00;100595.34;4997707;28;20045;-81
2022/08/20 07:06:05;;;;;;;28.75;22.17;;;;;;;20.29;100.00;100601.59;4995811;28;20494;-81
2022/08/20 07:08:32;;;;;;;25.98;21.45;;;;;;;20.34;100.00;100603.97;4995773;28;20042;-81
2022/08/20 07:10:59;;;;;;;23.77;18.90;;;;;;;20.33;100.00;100607.59;5012197;28;20048;-81
2022/08/20 07:13:27;;;;;;;23.67;18.33;;;;;;;20.40;100.00;100601.78;5011802;28;20136;-82
2022/08/20 07:15:54;;;;;;;24.02;19.58;;;;;;;20.45;100.00;100604.22;4998634;28;20049;-83
2022/08/20 07:18:22;;;;;;;20.90;17.05;;;;;;;20.48;100.00;100604.88;5014431;28;20042;-82
2022/08/20 07:20:55;;;;;;;24.25;20.08;;;;;;;20.51;100.00;100601.13;4994959;28;20080;-81
2022/08/20 07:23:23;;;;;;;22.30;19.02;;;;;;;20.57;100.00;100608.78;4995991;28;20033;-81
2022/08/20 07:25:50;;;;;;;23.80;19.13;;;;;;;20.71;100.00;100613.31;4993796;28;20473;-81
2022/08/20 07:28:19;;;;;;;23.73;18.98;;;;;;;20.73;100.00;100612.25;5008292;28;20448;-80
2022/08/20 07:33:40;;;;;;;27.45;21.48;;;;;;;20.80;100.00;100618.94;5008919;28;20034;-79
2022/08/20 07:36:07;;;;;;;25.58;19.42;;;;;;;20.82;100.00;100618.00;5002124;28;20037;-80
2022/08/20 07:38:35;;;;;;;23.42;19.67;;;;;;;20.92;100.00;100633.41;4980277;28;20048;-80
2022/08/20 07:41:07;;;;;;;24.80;19.70;;;;;;;21.05;100.00;100629.00;4993124;28;20116;-79
2022/08/20 07:43:34;;;;;;;22.52;18.00;;;;;;;21.04;100.00;100629.09;4994822;28;20041;-81
2022/08/20 07:46:06;;;;;;;24.60;19.60;;;;;;;21.09;100.00;100638.56;4991765;28;20073;-80
2022/08/20 07:48:36;;;;;;;24.65;20.02;;;;;;;21.27;100.00;100628.50;4995928;28;20177;-79
2022/08/20 07:51:03;;;;;;;29.80;19.70;;;;;;;21.21;100.00;100641.44;4990370;28;20048;-80
2022/08/20 07:53:33;;;;;;;20.98;17.08;;;;;;;21.28;100.00;100640.13;4991007;28;20049;-80
2022/08/20 07:56:07;;;;;;;22.27;19.33;;;;;;;21.29;100.00;100634.63;4993142;28;20045;-79
2022/08/20 07:58:38;;;;;;;21.70;18.80;;;;;;;21.36;100.00;100637.78;4992348;28;20084;-80
2022/08/20 08:01:05;;;;;;;21.63;18.88;;;;;;;21.25;100.00;100638.44;4987919;28;20041;-79
2022/08/20 08:03:32;;;;;;;21.20;18.70;;;;;;;21.28;100.00;100637.41;5010088;28;22001;-80
2022/08/20 08:06:17;;;;;;;18.75;16.67;;;;;;;21.23;100.00;100644.88;5025988;28;20036;-80
2022/08/20 08:09:06;;;;;;;22.13;17.73;;;;;;;21.08;100.00;100657.47;4980188;28;20386;-80
2022/08/20 08:11:36;;;;;;;21.88;17.67;;;;;;;21.04;100.00;100661.31;4977625;28;20060;-80
2022/08/20 08:14:06;;;;;;;22.88;18.58;;;;;;;21.07;100.00;100655.75;4977312;28;20045;-81
2022/08/20 08:16:36;;;;;;;17.75;15.55;;;;;;;21.00;100.00;100670.53;4995681;28;20395;-80
2022/08/20 08:19:08;;;;;;;20.17;17.30;;;;;;;20.96;100.00;100660.94;4996625;28;20054;-80
2022/08/20 08:21:36;;;;;;;18.52;16.55;;;;;;;20.98;100.00;100657.19;4975957;28;20501;-80
2022/08/20 08:24:03;;;;;;;21.85;18.23;;;;;;;21.04;100.00;100647.91;4980059;28;20044;-80
2022/08/20 08:26:30;;;;;;;23.05;20.15;;;;;;;20.95;100.00;100646.66;4983551;28;20049;-80
2022/08/20 08:28:57;;;;;;;19.95;16.25;;;;;;;20.98;100.00;100649.13;5027327;28;20037;-79
2022/08/20 08:31:25;;;;;;;21.50;17.88;;;;;;;21.10;100.00;100652.84;4992957;28;20084;-80
2022/08/20 08:33:54;;;;;;;22.15;19.40;;;;;;;21.07;100.00;100650.38;4994223;28;20128;-80
2022/08/20 08:36:26;;;;;;;20.05;16.95;;;;;;;21.18;100.00;100647.84;5018853;28;20069;-80
2022/08/20 08:38:55;;;;;;;20.65;17.30;;;;;;;21.29;100.00;100650.75;5010838;28;20091;-80
2022/08/20 08:41:33;;;;;;;19.48;16.95;;;;;;;21.23;100.00;100653.78;5012059;28;20076;-81
2022/08/20 08:44:03;;;;;;;23.02;19.10;;;;;;;21.43;100.00;100646.28;5010037;28;20033;-81
2022/08/20 08:46:39;;;;;;;18.13;16.13;;;;;;;21.59;100.00;100653.22;5011231;28;20422;-81
2022/08/20 08:49:06;;;;;;;23.00;19.35;;;;;;;21.76;100.00;100652.09;5003829;28;20057;-80
2022/08/20 08:51:45;;;;;;;19.08;17.08;;;;;;;21.71;100.00;100656.09;4978029;28;20034;-79
2022/08/20 08:54:18;;;;;;;22.15;19.00;;;;;;;21.59;100.00;100649.69;4995696;28;20128;-80
2022/08/20 08:56:46;;;;;;;18.90;15.70;;;;;;;21.70;100.00;100657.91;4975640;28;20045;-81
2022/08/20 08:59:16;;;;;;;20.90;18.58;;;;;;;21.81;100.00;100652.66;4991760;28;20041;-80
2022/08/20 09:01:46;;;;;;;20.27;16.40;;;;;;;21.96;100.00;100653.47;4976519;28;20052;-83
2022/08/20 09:04:23;;;;;;;23.02;19.10;;;;;;;22.12;100.00;100650.63;4994608;28;20045;-81
2022/08/20 09:06:53;;;;;;;20.00;17.85;;;;;;;22.22;100.00;100657.09;5009237;28;20128;-82
2022/08/20 09:09:33;;;;;;;18.75;16.70;;;;;;;22.29;100.00;100662.91;4985053;28;20099;-82
2022/08/20 09:12:06;;;;;;;21.80;18.00;;;;;;;22.37;100.00;100669.50;4998836;28;20119;-80
2022/08/20 09:14:33;;;;;;;;;;;;;;;22.29;100.00;100668.31;4993327;28;20487;-80
2022/08/20 09:16:59;;;;;;;19.67;16.25;;;;;;;22.27;100.00;100671.06;5003807;28;20288;-81
2022/08/20 09:19:26;;;;;;;17.75;15.85;;;;;;;22.26;100.00;100680.13;4993758;28;20410;-80
2022/08/20 09:22:43;;;;;;;20.40;18.20;;;;;;;22.19;100.00;100668.91;5004008;28;20064;-79
2022/08/20 09:25:10;;;;;;;19.42;16.95;;;;;;;22.24;100.00;100676.69;5036215;28;20510;-80
2022/08/20 09:27:39;;;;;;;22.02;16.20;;;;;;;22.19;100.00;100679.66;5005639;28;20494;-79
2022/08/20 09:30:10;;;;;;;18.75;15.38;;;;;;;22.17;100.00;100675.38;5024013;28;20092;-80
2022/08/20 09:32:36;;;;;;;18.42;16.25;;;;;;;22.26;100.00;100672.03;4993507;28;20120;-80
2022/08/20 09:35:12;;;;;;;16.25;14.55;;;;;;;22.26;100.00;100680.13;5004029;28;20044;-80
2022/08/20 09:37:39;;;;;;;18.55;15.93;;;;;;;22.43;100.00;100684.34;5011307;28;20050;-79
2022/08/20 09:40:09;;;;;;;19.35;16.17;;;;;;;22.41;100.00;100684.44;5001023;28;20060;-79
2022/08/20 09:42:37;;;;;;;18.25;15.15;;;;;;;22.36;100.00;100678.50;5014684;28;20133;-81
2022/08/20 09:45:08;;;;;;;14.10;12.70;;;;;;;22.23;100.00;100672.28;5000780;28;20038;-81
2022/08/20 09:47:37;;;;;;;17.17;14.13;;;;;;;22.28;100.00;100680.00;5000846;28;20052;-80
2022/08/20 09:50:08;;;;;;;16.10;14.40;;;;;;;22.35;100.00;100679.47;5014233;28;20092;-80
2022/08/20 09:52:44;;;;;;;17.00;15.25;;;;;;;22.26;100.00;100688.19;4996344;22;20522;31
2022/08/20 09:55:29;;;;;;;16.58;14.52;;;;;;;22.19;100.00;100684.19;4974383;28;20044;-78
2022/08/20 09:57:55;;;;;;;16.30;14.68;;;;;;;22.11;100.00;100683.84;5005488;28;20037;-77
2022/08/20 10:00:25;;;;;;;18.27;15.73;;;;;;;22.05;100.00;100682.44;5003691;28;20043;-77
2022/08/20 10:02:52;;;;;;;13.52;12.18;;;;;;;21.78;100.00;100684.31;5027311;28;20045;-77
2022/08/20 10:05:19;;;;;;;14.70;13.13;;;;;;;21.89;100.00;100687.13;5024916;28;20041;-77
2022/08/20 10:07:45;;;;;;;16.52;14.65;;;;;;;21.97;100.00;100690.16;5020923;28;20098;-76
2022/08/20 10:10:13;;;;;;;14.23;12.73;;;;;;;22.02;100.00;100684.44;5027694;28;20040;-77
2022/08/20 10:12:40;;;;;;;13.35;11.40;;;;;;;22.03;100.00;100683.47;5008424;28;20092;-77
2022/08/20 10:15:08;;;;;;;10.75;9.65;;;;;;;22.07;100.00;100677.84;5010226;28;20641;-77
2022/08/20 10:17:40;;;;;;;10.57;9.57;;;;;;;22.24;100.00;100678.50;5011884;28;20045;-78
2022/08/20 10:20:08;;;;;;;10.65;9.60;;;;;;;22.46;100.00;100687.69;4992895;28;20041;-78
2022/08/20 10:22:35;;;;;;;9.85;8.80;;;;;;;22.52;100.00;100688.22;5009998;28;20092;-77
2022/08/20 10:25:04;;;;;;;12.30;10.77;;;;;;;22.55;100.00;100682.63;5028351;28;20104;-77
2022/08/20 10:27:31;;;;;;;12.52;10.18;;;;;;;22.61;98.96;100679.50;5030412;28;20034;-78
2022/08/20 10:29:57;;;;;;;11.25;10.15;;;;;;;22.38;100.00;100692.75;5019601;28;20041;-77
2022/08/20 10:32:24;;;;;;;14.70;12.40;;;;;;;22.31;100.00;100693.28;5046105;28;20040;-76
2022/08/20 10:34:50;;;;;;;13.20;11.10;;;;;;;22.29;100.00;100696.09;5038704;28;20033;-77
2022/08/20 10:37:20;;;;;;;13.25;11.82;;;;;;;22.35;100.00;100689.38;5016476;28;20088;-78
2022/08/20 10:39:47;;;;;;;11.93;10.73;;;;;;;22.26;100.00;100690.88;5006078;28;20064;-77
2022/08/20 10:42:14;;;;;;;10.90;9.02;;;;;;;22.34;100.00;100693.91;4991285;28;20100;-77
2022/08/20 10:44:41;;;;;;;10.10;9.18;;;;;;;22.43;96.08;100698.66;5015549;28;20045;-77
2022/08/20 10:47:21;;;;;;;8.48;7.65;;;;;;;22.49;99.66;100689.31;5017570;28;20051;-77
2022/08/20 10:49:50;;;;;;;9.48;8.57;;;;;;;22.56;96.66;100693.31;5000525;28;20045;-76
2022/08/20 10:52:17;;;;;;;8.18;7.28;;;;;;;22.58;92.09;100696.75;5014103;28;20044;-77
2022/08/20 10:54:45;;;;;;;9.10;8.20;;;;;;;22.60;93.96;100691.25;5001325;28;20045;-77
2022/08/20 10:57:20;;;;;;;8.15;7.35;;;;;;;22.48;92.00;100693.84;5006320;28;20041;-77
2022/08/20 10:59:49;;;;;;;8.98;7.13;;;;;;;22.58;93.38;100691.34;5017399;28;20037;-77
2022/08/20 11:02:19;;;;;;;7.45;6.75;;;;;;;22.56;93.51;100701.38;5017241;28;20045;-77
2022/08/20 11:04:46;;;;;;;7.80;7.07;;;;;;;22.58;95.39;100696.75;5029105;28;20057;-77
2022/08/20 11:07:14;;;;;;;10.18;7.70;;;;;;;22.61;94.96;100693.81;5004146;28;20037;-78
2022/08/20 11:09:41;;;;;;;8.60;7.10;;;;;;;22.55;93.13;100691.56;5007423;28;21044;-77
2022/08/20 11:12:08;;;;;;;6.95;6.25;;;;;;;22.59;92.15;100694.91;5011028;28;20052;-77
2022/08/20 11:14:35;;;;;;;7.60;6.90;;;;;;;22.61;91.45;100704.59;4993867;28;20042;-78
2022/08/20 11:17:02;;;;;;;7.22;6.53;;;;;;;22.53;85.98;100698.88;5009206;28;20048;-77
2022/08/20 11:19:29;;;;;;;6.55;5.80;;;;;;;22.51;90.58;100697.28;5027075;28;20049;-77
2022/08/20 11:21:56;;;;;;;8.60;7.80;;;;;;;22.57;91.49;100702.25;5025634;28;20052;-77
2022/08/20 11:24:23;;;;;;;24.05;21.88;;;;;;;22.59;91.95;100701.16;4995220;28;20069;-76
2022/08/20 11:26:52;;;;;;;17.88;16.30;;;;;;;22.66;91.97;100698.91;5026751;28;20053;-79